sensor_id;sensor_type;location;lat;lon;timestamp;temperature;humidity
21849;DHT22;11089;49.852;19.700;2022-11-24T00:01:25;1.10;99.90
21849;DHT22;11089;49.852;19.700;2022-11-24T00:04:27;1.10;99.90
21849;DHT22;11089;49.852;19.700;2022-11-24T00:07:27;1.10;99.90
21849;DHT22;11089;49.852;19.700;2022-11-24T00:10:28;1.10;99.90
21849;DHT22;11089;49.852;19.700;2022-11-24T00:13:29;1.10;99.90
21849;DHT22;11089;49.852;19.700;2022-11-24T00:16:35;1.10;99.90
21849;DHT22;11089;49.852;19.700;2022-11-24T00:19:37;1.10;99.90
21849;DHT22;11089;49.852;19.700;2022-11-24T00:22:38;1.10;99.90
21849;DHT22;11089;49.852;19.700;2022-11-24T00:25:38;1.10;99.90
21849;DHT22;11089;49.852;19.700;2022-11-24T00:28:40;1.10;99.90
21849;DHT22;11089;49.852;19.700;2022-11-24T00:31:42;1.10;99.90
21849;DHT22;11089;49.852;19.700;2022-11-24T00:34:43;1.10;99.90
21849;DHT22;11089;49.852;19.700;2022-11-24T00:37:43;1.10;99.90
21849;DHT22;11089;49.852;19.700;2022-11-24T00:40:44;1.10;99.90
21849;DHT22;11089;49.852;19.700;2022-11-24T00:43:45;1.10;99.90
21849;DHT22;11089;49.852;19.700;2022-11-24T00:46:46;1.20;99.90
21849;DHT22;11089;49.852;19.700;2022-11-24T00:49:47;1.20;99.90
21849;DHT22;11089;49.852;19.700;2022-11-24T00:52:48;1.20;99.90
21849;DHT22;11089;49.852;19.700;2022-11-24T00:55:49;1.20;99.90
21849;DHT22;11089;49.852;19.700;2022-11-24T00:58:50;1.10;99.90
21849;DHT22;11089;49.852;19.700;2022-11-24T01:01:51;1.10;99.90
21849;DHT22;11089;49.852;19.700;2022-11-24T01:04:52;1.10;99.90
21849;DHT22;11089;49.852;19.700;2022-11-24T01:07:53;1.10;99.90
21849;DHT22;11089;49.852;19.700;2022-11-24T01:11:05;1.00;99.90
21849;DHT22;11089;49.852;19.700;2022-11-24T01:14:06;1.10;99.90
21849;DHT22;11089;49.852;19.700;2022-11-24T01:17:07;1.20;99.90
21849;DHT22;11089;49.852;19.700;2022-11-24T01:20:09;1.00;99.90
21849;DHT22;11089;49.852;19.700;2022-11-24T01:23:10;1.00;99.90
21849;DHT22;11089;49.852;19.700;2022-11-24T01:26:17;1.10;99.90
21849;DHT22;11089;49.852;19.700;2022-11-24T01:29:18;1.10;99.90
21849;DHT22;11089;49.852;19.700;2022-11-24T01:32:19;1.00;99.90
21849;DHT22;11089;49.852;19.700;2022-11-24T01:35:20;1.10;99.90
21849;DHT22;11089;49.852;19.700;2022-11-24T01:38:21;1.10;99.90
21849;DHT22;11089;49.852;19.700;2022-11-24T01:41:23;1.00;99.90
21849;DHT22;11089;49.852;19.700;2022-11-24T01:44:27;1.00;99.90
21849;DHT22;11089;49.852;19.700;2022-11-24T01:47:35;1.10;99.90
21849;DHT22;11089;49.852;19.700;2022-11-24T01:50:40;0.90;99.90
21849;DHT22;11089;49.852;19.700;2022-11-24T01:53:45;1.00;99.90
21849;DHT22;11089;49.852;19.700;2022-11-24T01:56:52;1.00;99.90
21849;DHT22;11089;49.852;19.700;2022-11-24T01:59:59;1.00;99.90
21849;DHT22;11089;49.852;19.700;2022-11-24T02:03:00;1.00;99.90
21849;DHT22;11089;49.852;19.700;2022-11-24T02:06:09;1.00;99.90
21849;DHT22;11089;49.852;19.700;2022-11-24T02:09:25;1.00;99.90
21849;DHT22;11089;49.852;19.700;2022-11-24T02:12:27;1.00;99.90
21849;DHT22;11089;49.852;19.700;2022-11-24T02:15:29;1.00;99.90
21849;DHT22;11089;49.852;19.700;2022-11-24T02:18:30;1.00;99.90
21849;DHT22;11089;49.852;19.700;2022-11-24T02:21:31;1.00;99.90
21849;DHT22;11089;49.852;19.700;2022-11-24T02:24:44;1.00;99.90
21849;DHT22;11089;49.852;19.700;2022-11-24T02:27:46;1.00;99.90
21849;DHT22;11089;49.852;19.700;2022-11-24T02:30:49;0.90;99.90
21849;DHT22;11089;49.852;19.700;2022-11-24T02:33:50;1.00;99.90
21849;DHT22;11089;49.852;19.700;2022-11-24T02:36:51;1.00;99.90
21849;DHT22;11089;49.852;19.700;2022-11-24T02:39:52;1.00;99.90
21849;DHT22;11089;49.852;19.700;2022-11-24T02:42:57;0.90;99.90
21849;DHT22;11089;49.852;19.700;2022-11-24T02:45:59;1.00;99.90
21849;DHT22;11089;49.852;19.700;2022-11-24T02:49:00;0.90;99.90
21849;DHT22;11089;49.852;19.700;2022-11-24T02:52:02;1.00;99.90
21849;DHT22;11089;49.852;19.700;2022-11-24T02:55:04;1.00;99.90
21849;DHT22;11089;49.852;19.700;2022-11-24T02:58:05;0.90;99.90
21849;DHT22;11089;49.852;19.700;2022-11-24T03:01:06;1.00;99.90
21849;DHT22;11089;49.852;19.700;2022-11-24T03:04:07;1.00;99.90
21849;DHT22;11089;49.852;19.700;2022-11-24T03:07:08;1.00;99.90
21849;DHT22;11089;49.852;19.700;2022-11-24T03:10:09;1.00;99.90
21849;DHT22;11089;49.852;19.700;2022-11-24T03:13:10;1.00;99.90
21849;DHT22;11089;49.852;19.700;2022-11-24T03:16:11;1.00;99.90
21849;DHT22;11089;49.852;19.700;2022-11-24T03:19:12;1.00;99.90
21849;DHT22;11089;49.852;19.700;2022-11-24T03:22:13;1.00;99.90
21849;DHT22;11089;49.852;19.700;2022-11-24T03:25:14;1.00;99.90
21849;DHT22;11089;49.852;19.700;2022-11-24T03:28:15;1.00;99.90
21849;DHT22;11089;49.852;19.700;2022-11-24T03:31:16;1.00;99.90
21849;DHT22;11089;49.852;19.700;2022-11-24T03:34:17;1.00;99.90
21849;DHT22;11089;49.852;19.700;2022-11-24T03:37:18;1.00;99.90
21849;DHT22;11089;49.852;19.700;2022-11-24T03:40:19;1.00;99.90
21849;DHT22;11089;49.852;19.700;2022-11-24T03:43:20;1.00;99.90
21849;DHT22;11089;49.852;19.700;2022-11-24T03:46:21;0.90;99.90
21849;DHT22;11089;49.852;19.700;2022-11-24T03:49:22;0.90;99.90
21849;DHT22;11089;49.852;19.700;2022-11-24T03:52:23;0.90;99.90
21849;DHT22;11089;49.852;19.700;2022-11-24T03:55:26;0.90;99.90
21849;DHT22;11089;49.852;19.700;2022-11-24T03:58:27;1.00;99.90
21849;DHT22;11089;49.852;19.700;2022-11-24T04:01:28;1.00;99.90
21849;DHT22;11089;49.852;19.700;2022-11-24T04:04:29;1.00;99.90
21849;DHT22;11089;49.852;19.700;2022-11-24T04:07:30;1.10;99.90
21849;DHT22;11089;49.852;19.700;2022-11-24T04:10:35;1.00;99.90
21849;DHT22;11089;49.852;19.700;2022-11-24T04:13:36;0.90;99.90
21849;DHT22;11089;49.852;19.700;2022-11-24T04:16:37;1.00;99.90
21849;DHT22;11089;49.852;19.700;2022-11-24T04:19:38;1.00;99.90
21849;DHT22;11089;49.852;19.700;2022-11-24T04:22:39;0.90;99.90
21849;DHT22;11089;49.852;19.700;2022-11-24T04:25:40;0.90;99.90
21849;DHT22;11089;49.852;19.700;2022-11-24T04:28:43;0.90;99.90
21849;DHT22;11089;49.852;19.700;2022-11-24T04:31:44;0.80;99.90
21849;DHT22;11089;49.852;19.700;2022-11-24T04:34:44;0.90;99.90
21849;DHT22;11089;49.852;19.700;2022-11-24T04:37:46;0.90;99.90
21849;DHT22;11089;49.852;19.700;2022-11-24T04:40:47;0.90;99.90
21849;DHT22;11089;49.852;19.700;2022-11-24T04:43:49;0.90;99.90
21849;DHT22;11089;49.852;19.700;2022-11-24T04:46:50;0.80;99.90
21849;DHT22;11089;49.852;19.700;2022-11-24T04:49:51;0.80;99.90
21849;DHT22;11089;49.852;19.700;2022-11-24T04:52:53;0.70;99.90
21849;DHT22;11089;49.852;19.700;2022-11-24T04:55:54;0.80;99.90
21849;DHT22;11089;49.852;19.700;2022-11-24T04:58:55;0.70;99.90
21849;DHT22;11089;49.852;19.700;2022-11-24T05:01:56;0.70;99.90
21849;DHT22;11089;49.852;19.700;2022-11-24T05:04:56;0.70;99.90
21849;DHT22;11089;49.852;19.700;2022-11-24T05:07:58;0.80;99.90
21849;DHT22;11089;49.852;19.700;2022-11-24T05:11:04;0.80;99.90
21849;DHT22;11089;49.852;19.700;2022-11-24T05:14:05;0.80;99.90
21849;DHT22;11089;49.852;19.700;2022-11-24T05:17:06;0.80;99.90
21849;DHT22;11089;49.852;19.700;2022-11-24T05:20:07;0.80;99.90
21849;DHT22;11089;49.852;19.700;2022-11-24T05:23:08;0.80;99.90
21849;DHT22;11089;49.852;19.700;2022-11-24T05:26:09;0.80;99.90
21849;DHT22;11089;49.852;19.700;2022-11-24T05:29:09;0.80;99.90
21849;DHT22;11089;49.852;19.700;2022-11-24T05:32:10;0.80;99.90
21849;DHT22;11089;49.852;19.700;2022-11-24T05:35:11;0.90;99.90
21849;DHT22;11089;49.852;19.700;2022-11-24T05:38:15;0.80;99.90
21849;DHT22;11089;49.852;19.700;2022-11-24T05:41:16;0.90;99.90
21849;DHT22;11089;49.852;19.700;2022-11-24T05:44:17;0.90;99.90
21849;DHT22;11089;49.852;19.700;2022-11-24T05:47:18;0.90;99.90
21849;DHT22;11089;49.852;19.700;2022-11-24T05:50:21;0.90;99.90
21849;DHT22;11089;49.852;19.700;2022-11-24T05:53:22;0.90;99.90
21849;DHT22;11089;49.852;19.700;2022-11-24T05:56:23;0.90;99.90
21849;DHT22;11089;49.852;19.700;2022-11-24T05:59:24;0.90;99.90
21849;DHT22;11089;49.852;19.700;2022-11-24T06:02:25;0.90;99.90
21849;DHT22;11089;49.852;19.700;2022-11-24T06:05:27;0.90;99.90
21849;DHT22;11089;49.852;19.700;2022-11-24T06:08:28;0.90;99.90
21849;DHT22;11089;49.852;19.700;2022-11-24T06:11:29;1.00;99.90
21849;DHT22;11089;49.852;19.700;2022-11-24T06:14:30;0.90;99.90
21849;DHT22;11089;49.852;19.700;2022-11-24T06:17:31;1.00;99.90
21849;DHT22;11089;49.852;19.700;2022-11-24T06:20:32;1.00;99.90
21849;DHT22;11089;49.852;19.700;2022-11-24T06:23:33;1.00;99.90
21849;DHT22;11089;49.852;19.700;2022-11-24T06:26:34;1.00;99.90
21849;DHT22;11089;49.852;19.700;2022-11-24T06:29:35;1.00;99.90
21849;DHT22;11089;49.852;19.700;2022-11-24T06:32:36;1.00;99.90
21849;DHT22;11089;49.852;19.700;2022-11-24T06:35:37;1.00;99.90
21849;DHT22;11089;49.852;19.700;2022-11-24T06:38:38;1.00;99.90
21849;DHT22;11089;49.852;19.700;2022-11-24T06:41:39;1.00;99.90
21849;DHT22;11089;49.852;19.700;2022-11-24T06:44:40;1.10;99.90
21849;DHT22;11089;49.852;19.700;2022-11-24T06:47:41;1.10;99.90
21849;DHT22;11089;49.852;19.700;2022-11-24T06:50:42;1.00;99.90
21849;DHT22;11089;49.852;19.700;2022-11-24T06:53:43;1.00;99.90
21849;DHT22;11089;49.852;19.700;2022-11-24T06:56:44;1.10;99.90
21849;DHT22;11089;49.852;19.700;2022-11-24T06:59:45;1.10;99.90
21849;DHT22;11089;49.852;19.700;2022-11-24T07:02:46;1.10;99.90
21849;DHT22;11089;49.852;19.700;2022-11-24T07:05:47;1.10;99.90
21849;DHT22;11089;49.852;19.700;2022-11-24T07:08:48;1.10;99.90
21849;DHT22;11089;49.852;19.700;2022-11-24T07:11:49;1.10;99.90
21849;DHT22;11089;49.852;19.700;2022-11-24T07:14:50;1.10;99.90
21849;DHT22;11089;49.852;19.700;2022-11-24T07:17:51;1.10;99.90
21849;DHT22;11089;49.852;19.700;2022-11-24T07:20:52;1.10;99.90
21849;DHT22;11089;49.852;19.700;2022-11-24T07:23:54;1.10;99.90
21849;DHT22;11089;49.852;19.700;2022-11-24T07:26:55;1.10;99.90
21849;DHT22;11089;49.852;19.700;2022-11-24T07:29:56;1.20;99.90
21849;DHT22;11089;49.852;19.700;2022-11-24T07:32:59;1.10;99.90
21849;DHT22;11089;49.852;19.700;2022-11-24T07:36:00;1.10;99.90
21849;DHT22;11089;49.852;19.700;2022-11-24T07:39:01;1.20;99.90
21849;DHT22;11089;49.852;19.700;2022-11-24T07:42:05;1.20;99.90
21849;DHT22;11089;49.852;19.700;2022-11-24T07:45:08;1.20;99.90
21849;DHT22;11089;49.852;19.700;2022-11-24T07:48:09;1.20;99.90
21849;DHT22;11089;49.852;19.700;2022-11-24T07:51:11;1.20;99.90
21849;DHT22;11089;49.852;19.700;2022-11-24T07:54:12;1.20;99.90
21849;DHT22;11089;49.852;19.700;2022-11-24T07:57:13;1.20;99.90
21849;DHT22;11089;49.852;19.700;2022-11-24T08:00:14;1.20;99.90
21849;DHT22;11089;49.852;19.700;2022-11-24T08:03:15;1.30;99.90
21849;DHT22;11089;49.852;19.700;2022-11-24T08:06:16;1.20;99.90
21849;DHT22;11089;49.852;19.700;2022-11-24T08:09:18;1.30;99.90
21849;DHT22;11089;49.852;19.700;2022-11-24T08:12:19;1.30;99.90
21849;DHT22;11089;49.852;19.700;2022-11-24T08:15:23;1.30;99.90
21849;DHT22;11089;49.852;19.700;2022-11-24T08:18:23;1.30;99.90
21849;DHT22;11089;49.852;19.700;2022-11-24T08:21:24;1.30;99.90
21849;DHT22;11089;49.852;19.700;2022-11-24T08:24:26;1.30;99.90
21849;DHT22;11089;49.852;19.700;2022-11-24T08:27:29;1.30;99.90
21849;DHT22;11089;49.852;19.700;2022-11-24T08:30:30;1.30;99.90
21849;DHT22;11089;49.852;19.700;2022-11-24T08:33:31;1.30;99.90
21849;DHT22;11089;49.852;19.700;2022-11-24T08:36:32;1.30;99.90
21849;DHT22;11089;49.852;19.700;2022-11-24T08:39:33;1.30;99.90
21849;DHT22;11089;49.852;19.700;2022-11-24T08:42:34;1.40;99.90
21849;DHT22;11089;49.852;19.700;2022-11-24T08:45:35;1.30;99.90
21849;DHT22;11089;49.852;19.700;2022-11-24T08:48:37;1.30;99.90
21849;DHT22;11089;49.852;19.700;2022-11-24T08:51:38;1.40;99.90
21849;DHT22;11089;49.852;19.700;2022-11-24T08:54:39;1.40;99.90
21849;DHT22;11089;49.852;19.700;2022-11-24T08:57:40;1.40;99.90
21849;DHT22;11089;49.852;19.700;2022-11-24T09:00:42;1.40;99.90
21849;DHT22;11089;49.852;19.700;2022-11-24T09:03:45;1.40;99.90
21849;DHT22;11089;49.852;19.700;2022-11-24T09:06:46;1.40;99.90
21849;DHT22;11089;49.852;19.700;2022-11-24T09:09:47;1.50;99.90
21849;DHT22;11089;49.852;19.700;2022-11-24T09:12:48;1.40;99.90
21849;DHT22;11089;49.852;19.700;2022-11-24T09:15:50;1.40;99.90
21849;DHT22;11089;49.852;19.700;2022-11-24T09:19:00;1.50;99.90
21849;DHT22;11089;49.852;19.700;2022-11-24T09:22:01;1.50;99.90
21849;DHT22;11089;49.852;19.700;2022-11-24T09:25:03;1.50;99.90
21849;DHT22;11089;49.852;19.700;2022-11-24T09:28:04;1.50;99.90
21849;DHT22;11089;49.852;19.700;2022-11-24T09:31:07;1.50;99.90
21849;DHT22;11089;49.852;19.700;2022-11-24T09:34:12;1.50;99.90
21849;DHT22;11089;49.852;19.700;2022-11-24T09:37:14;1.50;99.90
21849;DHT22;11089;49.852;19.700;2022-11-24T09:40:15;1.50;99.90
21849;DHT22;11089;49.852;19.700;2022-11-24T09:46:35;1.50;99.90
21849;DHT22;11089;49.852;19.700;2022-11-24T09:49:56;1.40;99.90
21849;DHT22;11089;49.852;19.700;2022-11-24T09:53:31;1.40;99.90
21849;DHT22;11089;49.852;19.700;2022-11-24T09:56:35;1.50;99.90
21849;DHT22;11089;49.852;19.700;2022-11-24T09:59:40;1.50;99.90
21849;DHT22;11089;49.852;19.700;2022-11-24T10:02:43;1.50;99.90
21849;DHT22;11089;49.852;19.700;2022-11-24T10:05:48;1.50;99.90
21849;DHT22;11089;49.852;19.700;2022-11-24T10:28:43;1.40;99.90
21849;DHT22;11089;49.852;19.700;2022-11-24T10:31:45;1.40;99.90
21849;DHT22;11089;49.852;19.700;2022-11-24T10:34:48;1.40;99.90
21849;DHT22;11089;49.852;19.700;2022-11-24T10:41:20;1.50;99.90
21849;DHT22;11089;49.852;19.700;2022-11-24T10:44:24;1.50;99.90
21849;DHT22;11089;49.852;19.700;2022-11-24T10:47:24;1.50;99.90
21849;DHT22;11089;49.852;19.700;2022-11-24T10:50:35;1.40;99.90
21849;DHT22;11089;49.852;19.700;2022-11-24T10:53:39;1.50;99.90
21849;DHT22;11089;49.852;19.700;2022-11-24T10:56:42;1.50;99.90
21849;DHT22;11089;49.852;19.700;2022-11-24T10:59:43;1.50;99.90
21849;DHT22;11089;49.852;19.700;2022-11-24T11:02:46;1.60;99.90
21849;DHT22;11089;49.852;19.700;2022-11-24T11:12:17;1.50;99.90
21849;DHT22;11089;49.852;19.700;2022-11-24T11:15:30;1.60;99.90
21849;DHT22;11089;49.852;19.700;2022-11-24T11:18:32;1.50;99.90
21849;DHT22;11089;49.852;19.700;2022-11-24T11:21:37;1.50;99.90
21849;DHT22;11089;49.852;19.700;2022-11-24T11:24:40;1.50;99.90
21849;DHT22;11089;49.852;19.700;2022-11-24T11:27:42;1.50;99.90
21849;DHT22;11089;49.852;19.700;2022-11-24T11:30:58;1.60;99.90
21849;DHT22;11089;49.852;19.700;2022-11-24T11:37:12;1.60;99.90
21849;DHT22;11089;49.852;19.700;2022-11-24T11:40:23;1.60;99.90
21849;DHT22;11089;49.852;19.700;2022-11-24T11:43:29;1.60;99.90
21849;DHT22;11089;49.852;19.700;2022-11-24T11:46:31;1.60;99.90
21849;DHT22;11089;49.852;19.700;2022-11-24T11:49:35;1.60;99.90
21849;DHT22;11089;49.852;19.700;2022-11-24T11:57:05;1.60;99.90
21849;DHT22;11089;49.852;19.700;2022-11-24T11:59:53;1.60;99.90
21849;DHT22;11089;49.852;19.700;2022-11-24T12:09:55;1.60;99.90
21849;DHT22;11089;49.852;19.700;2022-11-24T12:19:52;1.60;99.90
21849;DHT22;11089;49.852;19.700;2022-11-24T12:23:21;1.60;99.90
21849;DHT22;11089;49.852;19.700;2022-11-24T12:26:42;1.60;99.90
21849;DHT22;11089;49.852;19.700;2022-11-24T12:29:56;1.70;99.90
21849;DHT22;11089;49.852;19.700;2022-11-24T12:33:15;1.70;99.90
21849;DHT22;11089;49.852;19.700;2022-11-24T12:40:04;1.60;99.90
21849;DHT22;11089;49.852;19.700;2022-11-24T12:46:58;1.60;99.90
21849;DHT22;11089;49.852;19.700;2022-11-24T12:50:17;1.60;99.90
21849;DHT22;11089;49.852;19.700;2022-11-24T12:53:31;1.60;99.90
21849;DHT22;11089;49.852;19.700;2022-11-24T13:00:56;1.60;99.90
21849;DHT22;11089;49.852;19.700;2022-11-24T13:03:45;1.60;99.90
21849;DHT22;11089;49.852;19.700;2022-11-24T13:06:54;1.60;99.90
21849;DHT22;11089;49.852;19.700;2022-11-24T13:10:46;1.50;99.90
21849;DHT22;11089;49.852;19.700;2022-11-24T13:14:01;1.50;99.90
21849;DHT22;11089;49.852;19.700;2022-11-24T13:17:28;1.50;99.90
21849;DHT22;11089;49.852;19.700;2022-11-24T13:20:37;1.50;99.90
21849;DHT22;11089;49.852;19.700;2022-11-24T13:23:39;1.50;99.90
21849;DHT22;11089;49.852;19.700;2022-11-24T13:26:44;1.50;99.90
21849;DHT22;11089;49.852;19.700;2022-11-24T13:29:48;1.50;99.90
21849;DHT22;11089;49.852;19.700;2022-11-24T13:39:18;1.50;99.90
21849;DHT22;11089;49.852;19.700;2022-11-24T13:42:24;1.50;99.90
21849;DHT22;11089;49.852;19.700;2022-11-24T13:51:46;1.50;99.90
21849;DHT22;11089;49.852;19.700;2022-11-24T13:54:47;1.40;99.90
21849;DHT22;11089;49.852;19.700;2022-11-24T13:57:57;1.40;99.90
21849;DHT22;11089;49.852;19.700;2022-11-24T14:01:06;1.40;99.90
21849;DHT22;11089;49.852;19.700;2022-11-24T14:04:24;1.40;99.90
21849;DHT22;11089;49.852;19.700;2022-11-24T14:07:27;1.40;99.90
21849;DHT22;11089;49.852;19.700;2022-11-24T14:10:35;1.30;99.90
21849;DHT22;11089;49.852;19.700;2022-11-24T14:13:37;1.30;99.90
21849;DHT22;11089;49.852;19.700;2022-11-24T14:16:37;1.30;99.90
21849;DHT22;11089;49.852;19.700;2022-11-24T14:19:39;1.30;99.90
21849;DHT22;11089;49.852;19.700;2022-11-24T14:22:40;1.30;99.90
21849;DHT22;11089;49.852;19.700;2022-11-24T14:25:50;1.30;99.90
21849;DHT22;11089;49.852;19.700;2022-11-24T14:28:52;1.30;99.90
21849;DHT22;11089;49.852;19.700;2022-11-24T14:31:56;1.30;99.90
21849;DHT22;11089;49.852;19.700;2022-11-24T14:34:57;1.30;99.90
21849;DHT22;11089;49.852;19.700;2022-11-24T14:38:03;1.30;99.90
21849;DHT22;11089;49.852;19.700;2022-11-24T14:41:34;1.30;99.90
21849;DHT22;11089;49.852;19.700;2022-11-24T14:47:44;1.30;99.90
21849;DHT22;11089;49.852;19.700;2022-11-24T14:50:45;1.30;99.90
21849;DHT22;11089;49.852;19.700;2022-11-24T14:53:51;1.40;99.90
21849;DHT22;11089;49.852;19.700;2022-11-24T14:57:04;1.30;99.90
21849;DHT22;11089;49.852;19.700;2022-11-24T15:03:16;1.40;99.90
21849;DHT22;11089;49.852;19.700;2022-11-24T15:06:19;1.40;99.90
21849;DHT22;11089;49.852;19.700;2022-11-24T15:09:33;1.40;99.90
21849;DHT22;11089;49.852;19.700;2022-11-24T15:12:44;1.40;99.90
21849;DHT22;11089;49.852;19.700;2022-11-24T15:16:00;1.40;99.90
21849;DHT22;11089;49.852;19.700;2022-11-24T15:19:02;1.40;99.90
21849;DHT22;11089;49.852;19.700;2022-11-24T15:22:38;1.50;99.90
21849;DHT22;11089;49.852;19.700;2022-11-24T15:25:39;1.50;99.90
21849;DHT22;11089;49.852;19.700;2022-11-24T15:28:40;1.50;99.90
21849;DHT22;11089;49.852;19.700;2022-11-24T15:31:41;1.50;99.90
21849;DHT22;11089;49.852;19.700;2022-11-24T15:34:43;1.40;99.90
21849;DHT22;11089;49.852;19.700;2022-11-24T15:37:44;1.40;99.90
21849;DHT22;11089;49.852;19.700;2022-11-24T15:40:46;1.30;99.90
21849;DHT22;11089;49.852;19.700;2022-11-24T15:43:47;1.30;99.90
21849;DHT22;11089;49.852;19.700;2022-11-24T15:46:48;1.30;99.90
21849;DHT22;11089;49.852;19.700;2022-11-24T15:49:49;1.40;99.90
21849;DHT22;11089;49.852;19.700;2022-11-24T15:52:50;1.40;99.90
21849;DHT22;11089;49.852;19.700;2022-11-24T15:55:52;1.40;99.90
21849;DHT22;11089;49.852;19.700;2022-11-24T15:58:53;1.40;99.90
21849;DHT22;11089;49.852;19.700;2022-11-24T16:01:54;1.40;99.90
21849;DHT22;11089;49.852;19.700;2022-11-24T16:04:55;1.40;99.90
21849;DHT22;11089;49.852;19.700;2022-11-24T16:07:56;1.40;99.90
21849;DHT22;11089;49.852;19.700;2022-11-24T16:10:57;1.40;99.90
21849;DHT22;11089;49.852;19.700;2022-11-24T16:13:58;1.40;99.90
21849;DHT22;11089;49.852;19.700;2022-11-24T16:16:59;1.40;99.90
21849;DHT22;11089;49.852;19.700;2022-11-24T16:20:00;1.50;99.90
21849;DHT22;11089;49.852;19.700;2022-11-24T16:23:02;1.50;99.90
21849;DHT22;11089;49.852;19.700;2022-11-24T16:26:04;1.40;99.90
21849;DHT22;11089;49.852;19.700;2022-11-24T16:29:05;1.40;99.90
21849;DHT22;11089;49.852;19.700;2022-11-24T16:32:06;1.30;99.90
21849;DHT22;11089;49.852;19.700;2022-11-24T16:35:07;1.30;99.90
21849;DHT22;11089;49.852;19.700;2022-11-24T16:38:26;1.30;99.90
21849;DHT22;11089;49.852;19.700;2022-11-24T16:41:27;1.30;99.90
21849;DHT22;11089;49.852;19.700;2022-11-24T16:44:28;1.30;99.90
21849;DHT22;11089;49.852;19.700;2022-11-24T16:47:29;1.40;99.90
21849;DHT22;11089;49.852;19.700;2022-11-24T16:50:30;1.30;99.90
21849;DHT22;11089;49.852;19.700;2022-11-24T16:53:31;1.30;99.90
21849;DHT22;11089;49.852;19.700;2022-11-24T16:56:32;1.30;99.90
21849;DHT22;11089;49.852;19.700;2022-11-24T16:59:33;1.30;99.90
21849;DHT22;11089;49.852;19.700;2022-11-24T17:02:34;1.30;99.90
21849;DHT22;11089;49.852;19.700;2022-11-24T17:05:35;1.30;99.90
21849;DHT22;11089;49.852;19.700;2022-11-24T17:08:38;1.30;99.90
21849;DHT22;11089;49.852;19.700;2022-11-24T17:11:39;1.30;99.90
21849;DHT22;11089;49.852;19.700;2022-11-24T17:14:40;1.30;99.90
21849;DHT22;11089;49.852;19.700;2022-11-24T17:17:41;1.30;99.90
21849;DHT22;11089;49.852;19.700;2022-11-24T17:20:43;1.30;99.90
21849;DHT22;11089;49.852;19.700;2022-11-24T17:23:44;1.30;99.90
21849;DHT22;11089;49.852;19.700;2022-11-24T17:26:45;1.30;99.90
21849;DHT22;11089;49.852;19.700;2022-11-24T17:29:48;1.30;99.90
21849;DHT22;11089;49.852;19.700;2022-11-24T17:32:49;1.30;99.90
21849;DHT22;11089;49.852;19.700;2022-11-24T17:35:50;1.30;99.90
21849;DHT22;11089;49.852;19.700;2022-11-24T17:38:51;1.20;99.90
21849;DHT22;11089;49.852;19.700;2022-11-24T17:41:52;1.30;99.90
21849;DHT22;11089;49.852;19.700;2022-11-24T17:44:53;1.30;99.90
21849;DHT22;11089;49.852;19.700;2022-11-24T17:47:57;1.30;99.90
21849;DHT22;11089;49.852;19.700;2022-11-24T17:51:04;1.40;99.90
21849;DHT22;11089;49.852;19.700;2022-11-24T17:54:07;1.30;99.90
21849;DHT22;11089;49.852;19.700;2022-11-24T17:57:08;1.30;99.90
21849;DHT22;11089;49.852;19.700;2022-11-24T18:00:09;1.30;99.90
21849;DHT22;11089;49.852;19.700;2022-11-24T18:03:11;1.30;99.90
21849;DHT22;11089;49.852;19.700;2022-11-24T18:06:14;1.30;99.90
21849;DHT22;11089;49.852;19.700;2022-11-24T18:09:15;1.30;99.90
21849;DHT22;11089;49.852;19.700;2022-11-24T18:12:16;1.30;99.90
21849;DHT22;11089;49.852;19.700;2022-11-24T18:15:17;1.30;99.90
21849;DHT22;11089;49.852;19.700;2022-11-24T18:18:18;1.30;99.90
21849;DHT22;11089;49.852;19.700;2022-11-24T18:21:19;1.30;99.90
21849;DHT22;11089;49.852;19.700;2022-11-24T18:24:20;1.30;99.90
21849;DHT22;11089;49.852;19.700;2022-11-24T18:27:21;1.30;99.90
21849;DHT22;11089;49.852;19.700;2022-11-24T18:30:22;1.30;99.90
21849;DHT22;11089;49.852;19.700;2022-11-24T18:33:23;1.30;99.90
21849;DHT22;11089;49.852;19.700;2022-11-24T18:36:23;1.40;99.90
21849;DHT22;11089;49.852;19.700;2022-11-24T18:39:25;1.30;99.90
21849;DHT22;11089;49.852;19.700;2022-11-24T18:42:28;1.30;99.90
21849;DHT22;11089;49.852;19.700;2022-11-24T18:45:29;1.30;99.90
21849;DHT22;11089;49.852;19.700;2022-11-24T18:48:30;1.30;99.90
21849;DHT22;11089;49.852;19.700;2022-11-24T18:51:31;1.40;99.90
21849;DHT22;11089;49.852;19.700;2022-11-24T18:54:32;1.30;99.90
21849;DHT22;11089;49.852;19.700;2022-11-24T18:57:33;1.40;99.90
21849;DHT22;11089;49.852;19.700;2022-11-24T19:00:34;1.40;99.90
21849;DHT22;11089;49.852;19.700;2022-11-24T19:03:37;1.30;99.90
21849;DHT22;11089;49.852;19.700;2022-11-24T19:06:38;1.40;99.90
21849;DHT22;11089;49.852;19.700;2022-11-24T19:09:39;1.40;99.90
21849;DHT22;11089;49.852;19.700;2022-11-24T19:12:41;1.40;99.90
21849;DHT22;11089;49.852;19.700;2022-11-24T19:15:42;1.30;99.90
21849;DHT22;11089;49.852;19.700;2022-11-24T19:18:43;1.40;99.90
21849;DHT22;11089;49.852;19.700;2022-11-24T19:21:44;1.40;99.90
21849;DHT22;11089;49.852;19.700;2022-11-24T19:24:45;1.30;99.90
21849;DHT22;11089;49.852;19.700;2022-11-24T19:27:46;1.30;99.90
21849;DHT22;11089;49.852;19.700;2022-11-24T19:42:23;1.30;99.90
21849;DHT22;11089;49.852;19.700;2022-11-24T19:45:24;1.50;99.90
21849;DHT22;11089;49.852;19.700;2022-11-24T19:48:25;1.50;99.90
21849;DHT22;11089;49.852;19.700;2022-11-24T19:51:31;1.50;99.90
21849;DHT22;11089;49.852;19.700;2022-11-24T19:54:33;1.50;99.90
21849;DHT22;11089;49.852;19.700;2022-11-24T19:57:35;1.40;99.90
21849;DHT22;11089;49.852;19.700;2022-11-24T20:00:36;1.40;99.90
21849;DHT22;11089;49.852;19.700;2022-11-24T20:03:38;1.40;99.90
21849;DHT22;11089;49.852;19.700;2022-11-24T20:06:44;1.40;99.90
21849;DHT22;11089;49.852;19.700;2022-11-24T20:09:45;1.40;99.90
21849;DHT22;11089;49.852;19.700;2022-11-24T20:12:46;1.30;99.90
21849;DHT22;11089;49.852;19.700;2022-11-24T20:15:47;1.40;99.90
21849;DHT22;11089;49.852;19.700;2022-11-24T20:18:48;1.40;99.90
21849;DHT22;11089;49.852;19.700;2022-11-24T20:21:49;1.30;99.90
21849;DHT22;11089;49.852;19.700;2022-11-24T20:24:52;1.30;99.90
21849;DHT22;11089;49.852;19.700;2022-11-24T20:27:53;1.30;99.90
21849;DHT22;11089;49.852;19.700;2022-11-24T20:30:59;1.30;99.90
21849;DHT22;11089;49.852;19.700;2022-11-24T20:34:01;1.20;99.90
21849;DHT22;11089;49.852;19.700;2022-11-24T20:37:02;1.30;99.90
21849;DHT22;11089;49.852;19.700;2022-11-24T20:40:04;1.30;99.90
21849;DHT22;11089;49.852;19.700;2022-11-24T20:43:05;1.30;99.90
21849;DHT22;11089;49.852;19.700;2022-11-24T20:46:09;1.30;99.90
21849;DHT22;11089;49.852;19.700;2022-11-24T20:49:13;1.30;99.90
21849;DHT22;11089;49.852;19.700;2022-11-24T20:52:14;1.30;99.90